Aviation Digital Data Service (ADDS)

Output produced by METARs form (0528 UTC 22 January 2021)
found at http://aviationweather.gov/metar/data/
 
METAR text: ETNT 220520Z 23010KT 9999 FEW023 BKN100 04/02 Q0983 BLU
Conditions at: ETNT (WITTMUNDHAVEN(GA, DE) observed 0520 UTC 22 January 2021
Temperature: 4.0°C (39°F)
Dewpoint: 2.0°C (36°F) [RH = 87%]
Pressure (altimeter): 29.03 inches Hg (983.0 mb)
Winds: from the SW (230 degrees) at 12 MPH (10 knots; 5.1 m/s)
Visibility: 6 or more miles (10+ km)
Ceiling: 10000 feet AGL
Clouds: few clouds at 2300 feet AGL
broken clouds at 10000 feet AGL
Weather: no significant weather observed at this time